createdAt,value
2023-04-26T04:02:50.198Z,1.70
2023-04-26T04:05:17.193Z,1.80
2023-04-26T04:07:43.976Z,1.42
2023-04-26T04:10:11.097Z,1.73
2023-04-26T04:12:37.961Z,1.38
2023-04-26T04:15:04.923Z,1.77
2023-04-26T04:17:31.754Z,1.85
2023-04-26T04:19:58.484Z,1.95
2023-04-26T04:22:25.142Z,1.50
2023-04-26T04:24:51.942Z,1.58
2023-04-26T04:27:18.839Z,1.83
2023-04-26T04:29:46.174Z,1.63
2023-04-26T04:32:15.045Z,1.75
2023-04-26T04:34:41.836Z,2.15
2023-04-26T04:37:08.723Z,1.88
2023-04-26T04:39:35.641Z,1.35
2023-04-26T04:42:02.499Z,1.70
2023-04-26T04:44:29.409Z,1.40
2023-04-26T04:46:56.783Z,1.50
2023-04-26T04:49:24.909Z,1.73
2023-04-26T04:51:51.729Z,2.85
2023-04-26T04:54:19.499Z,2.83
2023-04-26T04:56:46.315Z,1.73
2023-04-26T04:59:13.012Z,1.67
2023-04-26T05:01:39.815Z,2.03
2023-04-26T05:04:07.463Z,1.83
2023-04-26T05:06:34.581Z,2.22
2023-04-26T05:09:01.813Z,1.40
2023-04-26T05:11:28.642Z,1.92
2023-04-26T05:13:55.680Z,1.30
2023-04-26T05:16:22.940Z,2.03
2023-04-26T05:18:49.708Z,3.05
2023-04-26T05:21:16.990Z,2.10
2023-04-26T05:23:43.942Z,1.73
2023-04-26T05:26:15.898Z,2.78
2023-04-26T05:28:42.796Z,3.13
2023-04-26T05:31:11.415Z,2.00
2023-04-26T05:33:38.486Z,1.77
2023-04-26T05:36:05.756Z,2.00
2023-04-26T05:38:32.466Z,1.33
2023-04-26T05:40:59.207Z,1.58
2023-04-26T05:43:26.325Z,2.13
2023-04-26T05:45:54.382Z,1.40
2023-04-26T05:48:22.296Z,1.73
2023-04-26T05:50:50.063Z,1.50
2023-04-26T05:53:17.084Z,1.92
2023-04-26T05:55:43.968Z,2.00
2023-04-26T05:58:11.587Z,1.92
2023-04-26T06:00:38.849Z,2.10
2023-04-26T06:03:06.279Z,2.08
2023-04-26T06:05:33.418Z,1.92
2023-04-26T06:08:01.472Z,1.70
2023-04-26T06:10:28.323Z,2.28
2023-04-26T06:12:55.050Z,2.92
2023-04-26T06:15:21.940Z,2.15
2023-04-26T06:17:48.765Z,2.17
2023-04-26T06:20:16.348Z,1.92
2023-04-26T06:22:43.259Z,2.40
2023-04-26T06:25:10.323Z,1.80
2023-04-26T06:27:39.039Z,2.25
2023-04-26T06:30:07.847Z,3.28
2023-04-26T06:32:34.959Z,1.98
2023-04-26T06:35:01.994Z,2.45
2023-04-26T06:37:28.701Z,2.15
2023-04-26T06:39:55.776Z,2.65
2023-04-26T06:42:22.799Z,2.92
2023-04-26T06:44:49.532Z,2.45
2023-04-26T06:47:16.235Z,2.38
2023-04-26T06:49:42.974Z,2.00
2023-04-26T06:52:10.157Z,2.42
2023-04-26T06:54:45.898Z,1.27
2023-04-26T06:57:16.886Z,3.33
2023-04-26T06:59:43.635Z,1.73
2023-04-26T07:02:10.813Z,1.60
2023-04-26T07:04:37.839Z,1.55
2023-04-26T07:07:08.067Z,1.80
2023-04-26T07:09:34.897Z,1.30
2023-04-26T07:12:02.204Z,1.38
2023-04-26T07:14:28.861Z,3.00
2023-04-26T07:16:55.503Z,1.05
2023-04-26T07:19:22.323Z,2.28
2023-04-26T07:21:48.994Z,1.40
2023-04-26T07:24:15.677Z,1.90
2023-04-26T07:26:42.514Z,1.75
2023-04-26T07:29:09.293Z,1.50
2023-04-26T07:31:36.047Z,1.52
2023-04-26T07:34:03.132Z,1.67
2023-04-26T07:36:29.913Z,2.05
2023-04-26T07:38:56.650Z,1.75
2023-04-26T07:41:23.438Z,2.28
2023-04-26T07:43:50.635Z,2.30
2023-04-26T07:46:17.633Z,2.28
2023-04-26T07:48:44.718Z,2.47
2023-04-26T07:51:12.657Z,2.28
2023-04-26T07:53:40.139Z,2.45
2023-04-26T07:56:08.053Z,1.48
2023-04-26T07:58:36.230Z,3.20
2023-04-26T08:01:04.107Z,1.42
2023-04-26T08:03:31.414Z,2.40
2023-04-26T08:05:59.285Z,2.40
2023-04-26T08:08:26.989Z,2.65
2023-04-26T08:10:54.367Z,1.98
2023-04-26T08:13:21.562Z,2.60
2023-04-26T08:15:48.817Z,2.53
2023-04-26T08:18:15.543Z,2.78
2023-04-26T08:20:42.422Z,1.85
2023-04-26T08:23:09.140Z,2.70
2023-04-26T08:25:35.875Z,1.77
2023-04-26T08:28:02.586Z,2.00
2023-04-26T08:30:29.592Z,1.88
2023-04-26T08:32:56.686Z,2.60
2023-04-26T08:35:23.946Z,1.90
2023-04-26T08:37:50.895Z,2.25
2023-04-26T08:40:25.131Z,1.85
2023-04-26T08:42:53.612Z,2.10
2023-04-26T08:45:21.519Z,1.98
2023-04-26T08:47:51.112Z,2.05
2023-04-26T08:50:22.417Z,2.00
2023-04-26T08:52:51.980Z,2.25
2023-04-26T08:55:20.290Z,1.92
2023-04-26T08:57:48.536Z,2.20
2023-04-26T09:00:16.878Z,2.10
2023-04-26T09:02:48.604Z,1.92
2023-04-26T09:05:15.831Z,1.83
2023-04-26T09:07:45.386Z,2.20
2023-04-26T09:10:13.338Z,2.10
2023-04-26T09:12:40.735Z,1.80
2023-04-26T09:15:08.628Z,2.10
2023-04-26T09:17:37.557Z,1.63
2023-04-26T09:20:29.296Z,2.72
2023-04-26T09:23:08.263Z,1.83
2023-04-26T09:25:35.738Z,2.45
2023-04-26T09:28:03.982Z,2.83
2023-04-26T09:30:31.430Z,1.85
2023-04-26T09:33:04.139Z,2.08
2023-04-26T09:35:38.744Z,2.30
2023-04-26T09:38:12.648Z,1.90
2023-04-26T09:41:02.142Z,2.00
2023-04-26T09:43:37.650Z,2.85
2023-04-26T09:46:04.712Z,1.63
2023-04-26T09:48:34.538Z,2.45
2023-04-26T09:51:04.060Z,2.28
2023-04-26T09:53:42.684Z,2.10
2023-04-26T09:56:13.709Z,1.88
2023-04-26T09:59:02.235Z,1.77
2023-04-26T10:01:30.471Z,2.55
2023-04-26T10:03:58.360Z,1.88
2023-04-26T10:06:25.360Z,2.35
2023-04-26T10:08:52.246Z,2.17
2023-04-26T10:11:20.393Z,2.42
2023-04-26T10:13:49.968Z,2.00
2023-04-26T10:16:17.009Z,2.60
2023-04-26T10:18:43.745Z,2.53
2023-04-26T10:21:31.568Z,1.80
2023-04-26T10:24:00.267Z,1.88
2023-04-26T10:26:54.577Z,2.80
2023-04-26T10:29:22.354Z,1.77
2023-04-26T10:32:04.569Z,1.77
2023-04-26T10:34:37.030Z,1.80
2023-04-26T10:37:11.735Z,2.47
2023-04-26T10:39:40.745Z,1.73
2023-04-26T10:42:28.101Z,1.90
2023-04-26T10:44:58.978Z,1.38
2023-04-26T10:47:37.325Z,1.65
2023-04-26T10:50:11.451Z,2.10
2023-04-26T10:53:05.878Z,1.50
2023-04-26T10:55:52.086Z,1.55
2023-04-26T10:58:28.490Z,1.88
2023-04-26T11:01:08.276Z,1.95
2023-04-26T11:03:35.292Z,1.30
2023-04-26T11:06:07.777Z,1.77
2023-04-26T11:08:36.536Z,1.70
2023-04-26T11:11:13.301Z,1.73
2023-04-26T11:13:41.956Z,2.28
2023-04-26T11:16:16.295Z,1.70
2023-04-26T11:18:45.398Z,1.20
2023-04-26T11:21:15.109Z,2.10
2023-04-26T11:23:41.788Z,1.70
2023-04-26T11:26:09.494Z,1.73
2023-04-26T11:28:38.325Z,1.70
2023-04-26T11:31:07.203Z,2.25
2023-04-26T11:33:36.969Z,1.25
2023-04-26T11:36:04.104Z,1.42
2023-04-26T11:38:30.931Z,1.25
2023-04-26T11:41:04.351Z,1.67
2023-04-26T11:43:35.759Z,2.30
2023-04-26T11:46:03.285Z,1.65
2023-04-26T11:48:31.046Z,1.30
2023-04-26T11:50:59.532Z,2.40
2023-04-26T11:53:35.168Z,1.88
2023-04-26T11:56:02.220Z,1.60
2023-04-26T11:58:29.036Z,1.10
2023-04-26T12:01:00.885Z,2.10
2023-04-26T12:03:33.647Z,1.58
2023-04-26T12:06:01.373Z,1.75
2023-04-26T12:08:30.444Z,1.38
2023-04-26T12:11:02.049Z,2.10
2023-04-26T12:13:32.988Z,1.47
2023-04-26T12:15:59.819Z,1.40
2023-04-26T12:18:32.920Z,1.33
2023-04-26T12:21:00.721Z,1.52
2023-04-26T12:23:27.948Z,2.13
2023-04-26T12:25:56.548Z,1.52
2023-04-26T12:28:24.665Z,1.05
2023-04-26T12:30:51.619Z,1.73
2023-04-26T12:33:22.786Z,1.60
2023-04-26T12:35:50.872Z,1.90
2023-04-26T12:38:18.886Z,1.88
2023-04-26T12:40:45.962Z,1.38
2023-04-26T12:43:12.893Z,2.03
2023-04-26T12:45:39.851Z,2.05
2023-04-26T12:48:06.651Z,1.77
2023-04-26T12:50:33.784Z,1.50
2023-04-26T12:53:00.469Z,1.42
2023-04-26T12:55:27.227Z,1.80
2023-04-26T12:57:54.349Z,1.80
2023-04-26T13:00:21.970Z,1.95
2023-04-26T13:02:48.757Z,2.10
2023-04-26T13:05:15.796Z,1.60
2023-04-26T13:07:43.558Z,2.22
2023-04-26T13:10:12.845Z,1.67
2023-04-26T13:12:40.273Z,2.05
2023-04-26T13:15:08.382Z,2.47
2023-04-26T13:17:37.435Z,2.08
2023-04-26T13:20:07.950Z,2.28
2023-04-26T13:22:34.976Z,1.25
2023-04-26T13:25:02.100Z,2.83
2023-04-26T13:27:31.445Z,1.70
2023-04-26T13:29:58.662Z,1.92
2023-04-26T13:32:25.643Z,1.77
2023-04-26T13:34:53.300Z,1.88
2023-04-26T13:37:21.288Z,2.00
2023-04-26T13:39:48.620Z,2.00
2023-04-26T13:42:16.502Z,1.23
2023-04-26T13:44:43.477Z,1.85
2023-04-26T13:47:10.379Z,1.58
2023-04-26T13:49:38.014Z,2.05
2023-04-26T13:52:04.832Z,1.63
2023-04-26T13:54:31.690Z,2.22
2023-04-26T13:56:58.469Z,1.80
2023-04-26T13:59:25.210Z,1.50
2023-04-26T14:01:54.649Z,1.92
2023-04-26T14:04:22.746Z,2.13
2023-04-26T14:06:49.596Z,1.92
2023-04-26T14:09:17.282Z,2.33
2023-04-26T14:11:45.863Z,2.58
2023-04-26T14:14:14.312Z,2.90
2023-04-26T14:16:41.440Z,1.95
2023-04-26T14:19:08.236Z,1.85
2023-04-26T14:21:34.897Z,2.45
2023-04-26T14:24:01.706Z,2.78
2023-04-26T14:26:28.374Z,2.08
2023-04-26T14:28:55.105Z,1.85
2023-04-26T14:31:22.551Z,2.67
2023-04-26T14:33:49.271Z,1.63
2023-04-26T14:36:16.094Z,2.00
2023-04-26T14:38:43.629Z,1.90
2023-04-26T14:41:17.778Z,2.25
2023-04-26T14:43:46.265Z,2.00
2023-04-26T14:46:15.923Z,2.00
2023-04-26T14:48:45.667Z,1.88
2023-04-26T14:51:12.637Z,2.20
2023-04-26T14:53:39.329Z,1.67
2023-04-26T14:56:07.639Z,2.15
2023-04-26T14:58:34.690Z,1.95
2023-04-26T15:01:02.390Z,1.95
2023-04-26T15:03:29.546Z,2.25
2023-04-26T15:05:56.649Z,1.65
2023-04-26T15:08:23.627Z,2.38
2023-04-26T15:10:51.500Z,2.22
2023-04-26T15:13:18.784Z,1.95
2023-04-26T15:15:45.857Z,2.55
2023-04-26T15:18:12.696Z,1.40
2023-04-26T15:20:41.177Z,1.70
2023-04-26T15:23:08.370Z,1.65
2023-04-26T15:25:36.866Z,2.55
2023-04-26T15:28:04.017Z,1.65
2023-04-26T15:30:30.769Z,1.90
2023-04-26T15:32:57.774Z,2.35
2023-04-26T15:35:25.113Z,1.60
2023-04-26T15:37:53.877Z,2.85
2023-04-26T15:40:21.706Z,2.33
2023-04-26T15:42:49.407Z,1.90
2023-04-26T15:45:16.567Z,1.70
2023-04-26T15:47:43.380Z,2.30
2023-04-26T15:50:10.850Z,1.90
2023-04-26T15:52:39.533Z,1.88
2023-04-26T15:55:07.294Z,2.33
2023-04-26T15:57:34.628Z,2.28
2023-04-26T16:00:02.108Z,2.30
2023-04-26T16:02:29.023Z,2.28
2023-04-26T16:04:56.281Z,1.80
2023-04-26T16:07:23.546Z,2.50
2023-04-26T16:09:50.387Z,2.35
2023-04-26T16:12:17.066Z,2.20
2023-04-26T16:14:43.826Z,2.47
2023-04-26T16:17:10.651Z,1.90
2023-04-26T16:19:37.384Z,1.77
2023-04-26T16:22:04.262Z,2.20
2023-04-26T16:24:31.149Z,2.35
2023-04-26T16:26:57.955Z,1.70
2023-04-26T16:29:25.224Z,2.10
2023-04-26T16:31:52.663Z,1.88
2023-04-26T16:34:20.046Z,1.95
2023-04-26T16:36:46.851Z,1.80
2023-04-26T16:39:15.732Z,1.58
2023-04-26T16:41:44.156Z,1.50
2023-04-26T16:44:11.236Z,2.30
2023-04-26T16:46:38.282Z,2.20
2023-04-26T16:49:09.538Z,2.42
2023-04-26T16:51:37.904Z,2.55
2023-04-26T16:54:04.797Z,2.63
2023-04-26T16:56:32.266Z,1.88
2023-04-26T16:58:59.454Z,1.70
2023-04-26T17:01:26.859Z,2.10
2023-04-26T17:03:54.200Z,2.58
2023-04-26T17:06:21.241Z,1.77
2023-04-26T17:08:48.091Z,1.95
2023-04-26T17:11:16.149Z,2.58
2023-04-26T17:13:45.848Z,2.05
2023-04-26T17:16:12.725Z,1.83
2023-04-26T17:18:39.555Z,2.80
2023-04-26T17:21:07.016Z,2.28
2023-04-26T17:23:34.082Z,2.08
2023-04-26T17:26:01.771Z,2.00
2023-04-26T17:28:28.963Z,2.08
2023-04-26T17:30:56.037Z,2.03
2023-04-26T17:33:23.326Z,2.15
2023-04-26T17:35:50.084Z,2.35
2023-04-26T17:38:17.145Z,1.63
2023-04-26T17:40:43.871Z,2.70
2023-04-26T17:43:11.278Z,1.80
2023-04-26T17:45:40.919Z,2.20
2023-04-26T17:48:12.830Z,1.92
2023-04-26T17:50:40.209Z,2.55
2023-04-26T17:53:07.294Z,2.35
2023-04-26T17:55:34.168Z,2.17
2023-04-26T17:58:01.796Z,1.75
2023-04-26T18:00:28.781Z,3.08
2023-04-26T18:02:57.580Z,2.28
2023-04-26T18:05:25.096Z,2.42
2023-04-26T18:07:55.064Z,2.05
2023-04-26T18:10:21.923Z,1.70
2023-04-26T18:12:49.229Z,1.77
2023-04-26T18:15:16.013Z,2.00
2023-04-26T18:17:43.598Z,2.70
2023-04-26T18:20:12.965Z,1.80
2023-04-26T18:22:40.519Z,2.15
2023-04-26T18:25:07.779Z,1.90
2023-04-26T18:27:34.922Z,2.28
2023-04-26T18:30:02.067Z,1.95
2023-04-26T18:32:29.248Z,2.00
2023-04-26T18:34:55.980Z,1.85
2023-04-26T18:37:23.282Z,2.70
2023-04-26T18:39:50.595Z,2.70
2023-04-26T18:42:17.624Z,2.15
2023-04-26T18:44:44.449Z,2.05
2023-04-26T18:47:11.791Z,2.63
2023-04-26T18:49:38.514Z,3.05
2023-04-26T18:52:08.641Z,1.60
2023-04-26T18:54:36.417Z,2.03
2023-04-26T18:57:03.543Z,2.30
2023-04-26T18:59:30.458Z,1.98
2023-04-26T19:01:57.656Z,2.40
2023-04-26T19:04:24.663Z,2.25
2023-04-26T19:06:51.646Z,2.17
2023-04-26T19:09:18.624Z,2.55
2023-04-26T19:11:45.372Z,3.22
2023-04-26T19:14:12.306Z,2.88
2023-04-26T19:16:39.010Z,3.20
2023-04-26T19:19:06.246Z,2.25
2023-04-26T19:21:33.825Z,3.03
2023-04-26T19:24:00.677Z,2.50
2023-04-26T19:26:27.427Z,2.45
2023-04-26T19:28:55.791Z,2.08
2023-04-26T19:31:22.884Z,2.60
2023-04-26T19:33:49.630Z,4.05
2023-04-26T19:36:16.406Z,2.95
2023-04-26T19:38:43.163Z,3.35
2023-04-26T19:41:09.903Z,3.00
2023-04-26T19:43:36.878Z,2.95
2023-04-26T19:46:14.449Z,3.55
2023-04-26T19:48:41.681Z,3.15
2023-04-26T19:51:08.584Z,2.80
2023-04-26T19:53:35.699Z,2.92
2023-04-26T19:56:03.152Z,3.67
2023-04-26T19:58:30.259Z,3.33
2023-04-26T20:00:57.036Z,2.78
2023-04-26T20:03:24.642Z,4.40
2023-04-26T20:05:51.755Z,3.03
2023-04-26T20:08:19.159Z,4.00
2023-04-26T20:10:46.699Z,4.32
2023-04-26T20:13:13.651Z,3.25
2023-04-26T20:15:41.021Z,3.90
2023-04-26T20:18:08.272Z,4.10
2023-04-26T20:20:35.214Z,3.22
2023-04-26T20:23:03.061Z,5.75
2023-04-26T20:25:29.911Z,3.47
2023-04-26T20:27:56.707Z,3.97
2023-04-26T20:30:23.500Z,3.88
2023-04-26T20:32:50.198Z,3.83
2023-04-26T20:35:17.081Z,3.53
2023-04-26T20:37:43.743Z,3.50
2023-04-26T20:40:10.834Z,3.47
2023-04-26T20:42:38.077Z,3.80
2023-04-26T20:45:05.185Z,3.63
2023-04-26T20:47:32.049Z,4.45
2023-04-26T20:49:58.826Z,3.58
2023-04-26T20:52:25.635Z,3.88
2023-04-26T20:54:52.411Z,4.05
2023-04-26T20:57:19.075Z,3.70
2023-04-26T20:59:46.243Z,3.63
2023-04-26T21:02:13.008Z,3.05
2023-04-26T21:04:42.261Z,4.65
2023-04-26T21:07:09.995Z,4.15
2023-04-26T21:09:36.822Z,3.40
2023-04-26T21:12:03.764Z,3.25
2023-04-26T21:14:30.803Z,3.90
2023-04-26T21:16:57.584Z,4.88
2023-04-26T21:19:24.281Z,4.25
2023-04-26T21:21:51.154Z,4.40
2023-04-26T21:24:18.169Z,3.88
2023-04-26T21:26:45.028Z,4.78
2023-04-26T21:29:12.599Z,3.78
2023-04-26T21:31:39.373Z,3.28
2023-04-26T21:34:06.271Z,3.92
2023-04-26T21:36:32.970Z,4.78
2023-04-26T21:38:59.690Z,4.45
2023-04-26T21:41:26.516Z,4.38
2023-04-26T21:43:53.335Z,3.83
2023-04-26T21:46:20.072Z,3.85
2023-04-26T21:48:46.796Z,4.05
2023-04-26T21:51:13.671Z,3.95
2023-04-26T21:53:41.035Z,4.07
2023-04-26T21:56:07.910Z,3.72
2023-04-26T21:58:34.635Z,3.70
2023-04-26T22:01:13.261Z,3.25
2023-04-26T22:03:40.133Z,3.58
2023-04-26T22:06:08.206Z,3.40
2023-04-26T22:08:35.708Z,3.25
2023-04-26T22:11:02.815Z,3.53
2023-04-26T22:13:30.128Z,2.80
2023-04-26T22:15:57.017Z,3.70
2023-04-26T22:18:25.478Z,4.03
2023-04-26T22:20:52.299Z,3.25
2023-04-26T22:23:19.033Z,3.25
2023-04-26T22:25:45.702Z,3.53
2023-04-26T22:28:13.564Z,3.55
2023-04-26T22:30:40.412Z,3.13
2023-04-26T22:33:07.269Z,4.28
2023-04-26T22:35:34.941Z,4.10
2023-04-26T22:38:08.989Z,3.10
2023-04-26T22:40:36.281Z,3.70
2023-04-26T22:43:03.092Z,3.00
2023-04-26T22:45:29.887Z,3.75
2023-04-26T22:47:56.606Z,3.83
2023-04-26T22:50:23.637Z,2.63
2023-04-26T22:52:50.885Z,3.10
2023-04-26T22:55:18.148Z,3.72
2023-04-26T22:57:45.020Z,2.78
2023-04-26T23:00:12.638Z,3.38
2023-04-26T23:02:39.976Z,3.65
2023-04-26T23:05:09.890Z,3.72
2023-04-26T23:07:38.265Z,3.67
2023-04-26T23:10:05.819Z,3.65
2023-04-26T23:12:33.387Z,2.75
2023-04-26T23:15:00.180Z,3.35
2023-04-26T23:17:26.884Z,3.65
2023-04-26T23:19:54.039Z,2.85
2023-04-26T23:22:20.849Z,2.75
2023-04-26T23:24:47.605Z,3.47
2023-04-26T23:27:14.333Z,3.92
2023-04-26T23:29:41.018Z,2.67
2023-04-26T23:32:07.693Z,3.67
2023-04-26T23:34:34.429Z,2.50
2023-04-26T23:37:07.941Z,2.72
2023-04-26T23:39:36.065Z,3.45
2023-04-26T23:42:03.782Z,2.85
2023-04-26T23:44:30.506Z,2.90
2023-04-26T23:46:57.292Z,3.45
2023-04-26T23:49:24.408Z,3.15
2023-04-26T23:51:51.146Z,3.22
2023-04-26T23:54:17.815Z,2.75
2023-04-26T23:56:44.486Z,3.78
2023-04-26T23:59:11.282Z,3.53
